sensor_id;sensor_type;location;lat;lon;timestamp;P1;durP1;ratioP1;P2;durP2;ratioP2
51374;SDS011;37465;52.738;4.752;2024-02-23T00:00:47;15.38;;;3.50;;
51374;SDS011;37465;52.738;4.752;2024-02-23T00:03:14;17.40;;;3.90;;
51374;SDS011;37465;52.738;4.752;2024-02-23T00:05:42;26.85;;;4.68;;
51374;SDS011;37465;52.738;4.752;2024-02-23T00:08:09;14.60;;;3.85;;
51374;SDS011;37465;52.738;4.752;2024-02-23T00:10:37;17.60;;;3.30;;
51374;SDS011;37465;52.738;4.752;2024-02-23T00:13:05;20.20;;;3.55;;
51374;SDS011;37465;52.738;4.752;2024-02-23T00:15:32;14.20;;;3.58;;
51374;SDS011;37465;52.738;4.752;2024-02-23T00:18:01;19.65;;;4.10;;
51374;SDS011;37465;52.738;4.752;2024-02-23T00:20:30;17.02;;;3.15;;
51374;SDS011;37465;52.738;4.752;2024-02-23T00:22:58;12.35;;;2.97;;
51374;SDS011;37465;52.738;4.752;2024-02-23T00:25:25;13.70;;;3.38;;
51374;SDS011;37465;52.738;4.752;2024-02-23T00:27:53;19.55;;;3.17;;
51374;SDS011;37465;52.738;4.752;2024-02-23T00:30:21;14.93;;;2.95;;
51374;SDS011;37465;52.738;4.752;2024-02-23T00:32:48;17.63;;;3.58;;
51374;SDS011;37465;52.738;4.752;2024-02-23T00:35:17;14.07;;;3.80;;
51374;SDS011;37465;52.738;4.752;2024-02-23T00:37:45;14.40;;;3.55;;
51374;SDS011;37465;52.738;4.752;2024-02-23T00:40:12;14.40;;;2.92;;
51374;SDS011;37465;52.738;4.752;2024-02-23T00:42:40;14.68;;;2.97;;
51374;SDS011;37465;52.738;4.752;2024-02-23T00:45:07;12.88;;;2.92;;
51374;SDS011;37465;52.738;4.752;2024-02-23T00:47:35;14.10;;;2.70;;
51374;SDS011;37465;52.738;4.752;2024-02-23T00:50:04;13.70;;;2.72;;
51374;SDS011;37465;52.738;4.752;2024-02-23T00:52:33;17.98;;;3.35;;
51374;SDS011;37465;52.738;4.752;2024-02-23T00:55:01;11.38;;;2.97;;
51374;SDS011;37465;52.738;4.752;2024-02-23T00:57:28;11.23;;;3.05;;
51374;SDS011;37465;52.738;4.752;2024-02-23T00:59:56;13.73;;;2.88;;
51374;SDS011;37465;52.738;4.752;2024-02-23T01:02:24;15.50;;;3.03;;
51374;SDS011;37465;52.738;4.752;2024-02-23T01:04:52;12.35;;;2.33;;
51374;SDS011;37465;52.738;4.752;2024-02-23T01:07:23;12.98;;;2.35;;
51374;SDS011;37465;52.738;4.752;2024-02-23T01:09:52;13.80;;;2.30;;
51374;SDS011;37465;52.738;4.752;2024-02-23T01:12:19;14.38;;;2.42;;
51374;SDS011;37465;52.738;4.752;2024-02-23T01:14:47;11.23;;;1.98;;
51374;SDS011;37465;52.738;4.752;2024-02-23T01:17:15;12.23;;;2.47;;
51374;SDS011;37465;52.738;4.752;2024-02-23T01:19:43;13.60;;;2.65;;
51374;SDS011;37465;52.738;4.752;2024-02-23T01:22:10;10.32;;;2.17;;
51374;SDS011;37465;52.738;4.752;2024-02-23T01:24:38;10.80;;;2.25;;
51374;SDS011;37465;52.738;4.752;2024-02-23T01:27:07;13.32;;;2.78;;
51374;SDS011;37465;52.738;4.752;2024-02-23T01:29:34;8.90;;;1.75;;
51374;SDS011;37465;52.738;4.752;2024-02-23T01:32:02;13.25;;;2.15;;
51374;SDS011;37465;52.738;4.752;2024-02-23T01:34:29;12.93;;;1.90;;
51374;SDS011;37465;52.738;4.752;2024-02-23T01:36:57;13.85;;;2.05;;
51374;SDS011;37465;52.738;4.752;2024-02-23T01:39:24;10.70;;;1.98;;
51374;SDS011;37465;52.738;4.752;2024-02-23T01:41:52;9.40;;;1.58;;
51374;SDS011;37465;52.738;4.752;2024-02-23T01:44:22;13.27;;;2.45;;
51374;SDS011;37465;52.738;4.752;2024-02-23T01:46:50;9.90;;;2.08;;
51374;SDS011;37465;52.738;4.752;2024-02-23T01:49:17;11.60;;;2.10;;
51374;SDS011;37465;52.738;4.752;2024-02-23T01:51:45;11.43;;;1.90;;
51374;SDS011;37465;52.738;4.752;2024-02-23T01:54:12;8.85;;;1.80;;
51374;SDS011;37465;52.738;4.752;2024-02-23T01:56:40;11.00;;;1.90;;
51374;SDS011;37465;52.738;4.752;2024-02-23T01:59:09;11.45;;;1.77;;
51374;SDS011;37465;52.738;4.752;2024-02-23T02:01:39;15.73;;;2.00;;
51374;SDS011;37465;52.738;4.752;2024-02-23T02:04:06;10.23;;;2.40;;
51374;SDS011;37465;52.738;4.752;2024-02-23T02:06:34;10.77;;;1.80;;
51374;SDS011;37465;52.738;4.752;2024-02-23T02:09:01;20.17;;;3.00;;
51374;SDS011;37465;52.738;4.752;2024-02-23T02:11:29;11.05;;;1.65;;
51374;SDS011;37465;52.738;4.752;2024-02-23T02:13:56;12.00;;;1.80;;
51374;SDS011;37465;52.738;4.752;2024-02-23T02:16:24;10.15;;;1.52;;
51374;SDS011;37465;52.738;4.752;2024-02-23T02:18:53;11.88;;;1.73;;
51374;SDS011;37465;52.738;4.752;2024-02-23T02:21:21;9.80;;;1.60;;
51374;SDS011;37465;52.738;4.752;2024-02-23T02:23:51;11.20;;;1.65;;
51374;SDS011;37465;52.738;4.752;2024-02-23T02:26:18;10.02;;;1.92;;
51374;SDS011;37465;52.738;4.752;2024-02-23T02:28:46;11.10;;;1.63;;
51374;SDS011;37465;52.738;4.752;2024-02-23T02:31:14;7.80;;;1.40;;
51374;SDS011;37465;52.738;4.752;2024-02-23T02:33:41;11.20;;;1.80;;
51374;SDS011;37465;52.738;4.752;2024-02-23T02:36:10;9.18;;;1.70;;
51374;SDS011;37465;52.738;4.752;2024-02-23T02:38:38;10.77;;;2.22;;
51374;SDS011;37465;52.738;4.752;2024-02-23T02:41:06;7.43;;;1.45;;
51374;SDS011;37465;52.738;4.752;2024-02-23T02:43:34;9.18;;;1.23;;
51374;SDS011;37465;52.738;4.752;2024-02-23T02:46:01;10.98;;;1.83;;
51374;SDS011;37465;52.738;4.752;2024-02-23T02:48:29;9.90;;;1.77;;
51374;SDS011;37465;52.738;4.752;2024-02-23T02:50:56;9.98;;;1.60;;
51374;SDS011;37465;52.738;4.752;2024-02-23T02:53:25;10.57;;;1.50;;
51374;SDS011;37465;52.738;4.752;2024-02-23T02:55:53;10.93;;;2.38;;
51374;SDS011;37465;52.738;4.752;2024-02-23T02:58:20;13.60;;;1.88;;
51374;SDS011;37465;52.738;4.752;2024-02-23T03:00:48;15.88;;;2.55;;
51374;SDS011;37465;52.738;4.752;2024-02-23T03:03:15;4.63;;;1.50;;
51374;SDS011;37465;52.738;4.752;2024-02-23T03:05:43;5.15;;;1.73;;
51374;SDS011;37465;52.738;4.752;2024-02-23T03:08:10;8.85;;;1.20;;
51374;SDS011;37465;52.738;4.752;2024-02-23T03:10:39;8.93;;;2.00;;
51374;SDS011;37465;52.738;4.752;2024-02-23T03:13:07;11.20;;;1.98;;
51374;SDS011;37465;52.738;4.752;2024-02-23T03:15:34;9.93;;;1.90;;
51374;SDS011;37465;52.738;4.752;2024-02-23T03:18:02;7.72;;;1.67;;
51374;SDS011;37465;52.738;4.752;2024-02-23T03:20:29;11.95;;;2.60;;
51374;SDS011;37465;52.738;4.752;2024-02-23T03:22:57;15.60;;;2.40;;
51374;SDS011;37465;52.738;4.752;2024-02-23T03:25:25;11.70;;;1.92;;
51374;SDS011;37465;52.738;4.752;2024-02-23T03:27:53;11.25;;;1.75;;
51374;SDS011;37465;52.738;4.752;2024-02-23T03:30:21;10.60;;;1.63;;
51374;SDS011;37465;52.738;4.752;2024-02-23T03:32:48;5.60;;;1.50;;
51374;SDS011;37465;52.738;4.752;2024-02-23T03:35:16;7.38;;;1.20;;
51374;SDS011;37465;52.738;4.752;2024-02-23T03:37:44;9.23;;;1.15;;
51374;SDS011;37465;52.738;4.752;2024-02-23T03:40:11;6.20;;;1.00;;
51374;SDS011;37465;52.738;4.752;2024-02-23T03:42:39;10.00;;;1.83;;
51374;SDS011;37465;52.738;4.752;2024-02-23T03:45:08;10.77;;;2.05;;
51374;SDS011;37465;52.738;4.752;2024-02-23T03:47:36;11.35;;;1.90;;
51374;SDS011;37465;52.738;4.752;2024-02-23T03:50:04;12.05;;;1.70;;
51374;SDS011;37465;52.738;4.752;2024-02-23T03:52:32;15.68;;;2.20;;
51374;SDS011;37465;52.738;4.752;2024-02-23T03:54:59;13.10;;;2.15;;
51374;SDS011;37465;52.738;4.752;2024-02-23T03:57:27;11.88;;;2.15;;
51374;SDS011;37465;52.738;4.752;2024-02-23T03:59:54;12.20;;;1.38;;
51374;SDS011;37465;52.738;4.752;2024-02-23T04:02:23;8.63;;;1.63;;
51374;SDS011;37465;52.738;4.752;2024-02-23T04:04:51;12.68;;;1.60;;
51374;SDS011;37465;52.738;4.752;2024-02-23T04:07:19;9.38;;;1.77;;
51374;SDS011;37465;52.738;4.752;2024-02-23T04:09:47;13.85;;;1.67;;
51374;SDS011;37465;52.738;4.752;2024-02-23T04:12:18;10.88;;;1.77;;
51374;SDS011;37465;52.738;4.752;2024-02-23T04:14:46;7.57;;;1.42;;
51374;SDS011;37465;52.738;4.752;2024-02-23T04:17:14;5.28;;;1.30;;
51374;SDS011;37465;52.738;4.752;2024-02-23T04:19:43;11.27;;;1.70;;
51374;SDS011;37465;52.738;4.752;2024-02-23T04:22:10;8.77;;;1.60;;
51374;SDS011;37465;52.738;4.752;2024-02-23T04:24:38;12.10;;;1.80;;
51374;SDS011;37465;52.738;4.752;2024-02-23T04:27:06;15.15;;;2.35;;
51374;SDS011;37465;52.738;4.752;2024-02-23T04:29:34;7.22;;;1.45;;
51374;SDS011;37465;52.738;4.752;2024-02-23T04:32:02;7.50;;;1.40;;
51374;SDS011;37465;52.738;4.752;2024-02-23T04:34:30;6.35;;;1.23;;
51374;SDS011;37465;52.738;4.752;2024-02-23T04:36:59;9.05;;;1.60;;
51374;SDS011;37465;52.738;4.752;2024-02-23T04:39:27;8.20;;;1.27;;
51374;SDS011;37465;52.738;4.752;2024-02-23T04:41:54;10.68;;;2.00;;
51374;SDS011;37465;52.738;4.752;2024-02-23T04:44:22;9.38;;;1.63;;
51374;SDS011;37465;52.738;4.752;2024-02-23T04:46:50;7.43;;;1.40;;
51374;SDS011;37465;52.738;4.752;2024-02-23T04:49:17;5.85;;;1.40;;
51374;SDS011;37465;52.738;4.752;2024-02-23T04:51:45;9.48;;;1.17;;
51374;SDS011;37465;52.738;4.752;2024-02-23T04:54:14;13.52;;;1.48;;
51374;SDS011;37465;52.738;4.752;2024-02-23T04:56:41;6.78;;;1.52;;
51374;SDS011;37465;52.738;4.752;2024-02-23T04:59:09;8.23;;;1.50;;
51374;SDS011;37465;52.738;4.752;2024-02-23T05:01:36;12.77;;;2.20;;
51374;SDS011;37465;52.738;4.752;2024-02-23T05:04:04;8.40;;;1.40;;
51374;SDS011;37465;52.738;4.752;2024-02-23T05:06:32;7.00;;;1.50;;
51374;SDS011;37465;52.738;4.752;2024-02-23T05:08:59;10.75;;;1.40;;
51374;SDS011;37465;52.738;4.752;2024-02-23T05:11:28;14.70;;;1.75;;
51374;SDS011;37465;52.738;4.752;2024-02-23T05:13:56;9.55;;;1.70;;
51374;SDS011;37465;52.738;4.752;2024-02-23T05:16:24;10.00;;;1.65;;
51374;SDS011;37465;52.738;4.752;2024-02-23T05:18:51;9.90;;;1.48;;
51374;SDS011;37465;52.738;4.752;2024-02-23T05:21:19;9.82;;;1.50;;
51374;SDS011;37465;52.738;4.752;2024-02-23T05:23:46;11.57;;;1.83;;
51374;SDS011;37465;52.738;4.752;2024-02-23T05:26:14;7.55;;;1.60;;
51374;SDS011;37465;52.738;4.752;2024-02-23T05:28:42;10.13;;;1.60;;
51374;SDS011;37465;52.738;4.752;2024-02-23T05:31:10;9.57;;;1.27;;
51374;SDS011;37465;52.738;4.752;2024-02-23T05:33:37;11.05;;;2.03;;
51374;SDS011;37465;52.738;4.752;2024-02-23T05:36:05;13.93;;;3.03;;
51374;SDS011;37465;52.738;4.752;2024-02-23T05:38:33;15.05;;;2.72;;
51374;SDS011;37465;52.738;4.752;2024-02-23T05:41:01;16.60;;;3.38;;
51374;SDS011;37465;52.738;4.752;2024-02-23T05:43:28;15.82;;;3.55;;
51374;SDS011;37465;52.738;4.752;2024-02-23T05:45:57;15.82;;;2.47;;
51374;SDS011;37465;52.738;4.752;2024-02-23T05:48:25;13.70;;;1.92;;
51374;SDS011;37465;52.738;4.752;2024-02-23T05:50:52;10.90;;;2.20;;
51374;SDS011;37465;52.738;4.752;2024-02-23T05:53:20;14.23;;;1.70;;
51374;SDS011;37465;52.738;4.752;2024-02-23T05:55:48;15.80;;;1.75;;
51374;SDS011;37465;52.738;4.752;2024-02-23T05:58:15;14.23;;;2.05;;
51374;SDS011;37465;52.738;4.752;2024-02-23T06:00:43;8.95;;;2.30;;
51374;SDS011;37465;52.738;4.752;2024-02-23T06:03:12;12.27;;;1.90;;
51374;SDS011;37465;52.738;4.752;2024-02-23T06:05:39;7.97;;;1.70;;
51374;SDS011;37465;52.738;4.752;2024-02-23T06:08:07;7.38;;;1.30;;
51374;SDS011;37465;52.738;4.752;2024-02-23T06:10:35;5.80;;;1.13;;
51374;SDS011;37465;52.738;4.752;2024-02-23T06:13:04;9.88;;;1.20;;
51374;SDS011;37465;52.738;4.752;2024-02-23T06:15:31;11.00;;;1.60;;
51374;SDS011;37465;52.738;4.752;2024-02-23T06:17:58;8.40;;;0.90;;
51374;SDS011;37465;52.738;4.752;2024-02-23T06:20:27;8.27;;;1.30;;
51374;SDS011;37465;52.738;4.752;2024-02-23T06:25:23;5.05;;;1.00;;
51374;SDS011;37465;52.738;4.752;2024-02-23T06:27:50;9.05;;;1.17;;
51374;SDS011;37465;52.738;4.752;2024-02-23T06:30:18;6.47;;;1.27;;
51374;SDS011;37465;52.738;4.752;2024-02-23T06:32:47;7.07;;;1.10;;
51374;SDS011;37465;52.738;4.752;2024-02-23T06:35:14;8.27;;;1.70;;
51374;SDS011;37465;52.738;4.752;2024-02-23T06:37:43;8.18;;;1.08;;
51374;SDS011;37465;52.738;4.752;2024-02-23T06:40:11;8.60;;;1.20;;
51374;SDS011;37465;52.738;4.752;2024-02-23T06:42:38;10.13;;;0.95;;
51374;SDS011;37465;52.738;4.752;2024-02-23T06:45:06;11.73;;;1.40;;
51374;SDS011;37465;52.738;4.752;2024-02-23T06:47:35;5.95;;;1.13;;
51374;SDS011;37465;52.738;4.752;2024-02-23T06:50:03;8.02;;;1.30;;
51374;SDS011;37465;52.738;4.752;2024-02-23T06:52:31;6.53;;;1.85;;
51374;SDS011;37465;52.738;4.752;2024-02-23T06:55:00;11.77;;;1.52;;
51374;SDS011;37465;52.738;4.752;2024-02-23T06:57:28;7.43;;;2.00;;
51374;SDS011;37465;52.738;4.752;2024-02-23T06:59:57;5.72;;;1.50;;
51374;SDS011;37465;52.738;4.752;2024-02-23T07:02:24;7.60;;;1.60;;
51374;SDS011;37465;52.738;4.752;2024-02-23T07:04:52;4.93;;;1.50;;
51374;SDS011;37465;52.738;4.752;2024-02-23T07:07:21;7.78;;;1.63;;
51374;SDS011;37465;52.738;4.752;2024-02-23T07:09:51;6.22;;;1.80;;
51374;SDS011;37465;52.738;4.752;2024-02-23T07:12:20;5.70;;;1.42;;
51374;SDS011;37465;52.738;4.752;2024-02-23T07:14:48;3.42;;;1.60;;
51374;SDS011;37465;52.738;4.752;2024-02-23T07:17:16;5.80;;;1.80;;
51374;SDS011;37465;52.738;4.752;2024-02-23T07:19:44;6.03;;;2.22;;
51374;SDS011;37465;52.738;4.752;2024-02-23T07:22:11;5.03;;;2.00;;
51374;SDS011;37465;52.738;4.752;2024-02-23T07:24:39;3.60;;;2.28;;
51374;SDS011;37465;52.738;4.752;2024-02-23T07:27:06;7.10;;;2.63;;
51374;SDS011;37465;52.738;4.752;2024-02-23T07:29:35;5.20;;;2.28;;
51374;SDS011;37465;52.738;4.752;2024-02-23T07:32:03;5.60;;;3.00;;
51374;SDS011;37465;52.738;4.752;2024-02-23T07:34:31;6.53;;;3.00;;
51374;SDS011;37465;52.738;4.752;2024-02-23T07:37:05;9.07;;;3.38;;
51374;SDS011;37465;52.738;4.752;2024-02-23T07:39:32;6.15;;;3.17;;
51374;SDS011;37465;52.738;4.752;2024-02-23T07:41:59;5.32;;;3.00;;
51374;SDS011;37465;52.738;4.752;2024-02-23T07:44:28;4.57;;;2.80;;
51374;SDS011;37465;52.738;4.752;2024-02-23T07:46:57;8.05;;;3.38;;
51374;SDS011;37465;52.738;4.752;2024-02-23T07:49:25;6.97;;;3.33;;
51374;SDS011;37465;52.738;4.752;2024-02-23T07:51:54;6.60;;;3.20;;
51374;SDS011;37465;52.738;4.752;2024-02-23T07:54:22;4.00;;;3.00;;
51374;SDS011;37465;52.738;4.752;2024-02-23T07:56:49;4.80;;;3.38;;
51374;SDS011;37465;52.738;4.752;2024-02-23T07:59:18;6.53;;;3.58;;
51374;SDS011;37465;52.738;4.752;2024-02-23T08:01:46;9.35;;;4.88;;
51374;SDS011;37465;52.738;4.752;2024-02-23T08:04:15;12.07;;;3.63;;
51374;SDS011;37465;52.738;4.752;2024-02-23T08:06:43;8.70;;;3.70;;
51374;SDS011;37465;52.738;4.752;2024-02-23T08:09:10;8.25;;;3.88;;
51374;SDS011;37465;52.738;4.752;2024-02-23T08:11:38;6.75;;;3.63;;
51374;SDS011;37465;52.738;4.752;2024-02-23T08:14:05;5.00;;;3.42;;
51374;SDS011;37465;52.738;4.752;2024-02-23T08:16:33;6.10;;;3.70;;
51374;SDS011;37465;52.738;4.752;2024-02-23T08:19:00;5.47;;;3.67;;
51374;SDS011;37465;52.738;4.752;2024-02-23T08:21:29;4.28;;;3.47;;
51374;SDS011;37465;52.738;4.752;2024-02-23T08:23:57;8.70;;;3.85;;
51374;SDS011;37465;52.738;4.752;2024-02-23T08:26:24;8.90;;;4.80;;
51374;SDS011;37465;52.738;4.752;2024-02-23T08:28:52;9.75;;;5.50;;
51374;SDS011;37465;52.738;4.752;2024-02-23T08:31:19;8.88;;;5.00;;
51374;SDS011;37465;52.738;4.752;2024-02-23T08:33:47;7.20;;;5.50;;
51374;SDS011;37465;52.738;4.752;2024-02-23T08:36:15;9.00;;;5.43;;
51374;SDS011;37465;52.738;4.752;2024-02-23T08:38:44;9.50;;;5.45;;
51374;SDS011;37465;52.738;4.752;2024-02-23T08:41:11;10.02;;;6.15;;
51374;SDS011;37465;52.738;4.752;2024-02-23T08:43:39;9.23;;;5.00;;
51374;SDS011;37465;52.738;4.752;2024-02-23T08:46:06;7.97;;;3.70;;
51374;SDS011;37465;52.738;4.752;2024-02-23T08:48:35;6.38;;;3.17;;
51374;SDS011;37465;52.738;4.752;2024-02-23T08:51:03;6.88;;;2.50;;
51374;SDS011;37465;52.738;4.752;2024-02-23T08:53:31;5.93;;;2.40;;
51374;SDS011;37465;52.738;4.752;2024-02-23T08:56:00;3.72;;;2.58;;
51374;SDS011;37465;52.738;4.752;2024-02-23T08:58:28;3.97;;;2.95;;
51374;SDS011;37465;52.738;4.752;2024-02-23T09:00:54;4.90;;;2.72;;
51374;SDS011;37465;52.738;4.752;2024-02-23T09:03:22;3.35;;;2.38;;
51374;SDS011;37465;52.738;4.752;2024-02-23T09:05:49;4.40;;;2.80;;
51374;SDS011;37465;52.738;4.752;2024-02-23T09:08:17;4.43;;;2.78;;
51374;SDS011;37465;52.738;4.752;2024-02-23T09:10:45;6.80;;;3.50;;
51374;SDS011;37465;52.738;4.752;2024-02-23T09:13:14;6.50;;;3.70;;
51374;SDS011;37465;52.738;4.752;2024-02-23T09:15:41;7.80;;;3.97;;
51374;SDS011;37465;52.738;4.752;2024-02-23T09:18:09;8.75;;;3.85;;
51374;SDS011;37465;52.738;4.752;2024-02-23T09:20:37;7.80;;;4.65;;
51374;SDS011;37465;52.738;4.752;2024-02-23T09:23:04;8.65;;;4.82;;
51374;SDS011;37465;52.738;4.752;2024-02-23T09:25:32;8.73;;;4.70;;
51374;SDS011;37465;52.738;4.752;2024-02-23T09:27:59;11.07;;;5.03;;
51374;SDS011;37465;52.738;4.752;2024-02-23T09:30:28;9.60;;;4.75;;
51374;SDS011;37465;52.738;4.752;2024-02-23T09:32:56;11.75;;;4.78;;
51374;SDS011;37465;52.738;4.752;2024-02-23T09:35:24;8.93;;;4.80;;
51374;SDS011;37465;52.738;4.752;2024-02-23T09:37:52;9.80;;;4.75;;
51374;SDS011;37465;52.738;4.752;2024-02-23T09:40:19;9.60;;;4.25;;
51374;SDS011;37465;52.738;4.752;2024-02-23T09:42:48;8.55;;;4.65;;
51374;SDS011;37465;52.738;4.752;2024-02-23T09:45:18;7.60;;;4.82;;
51374;SDS011;37465;52.738;4.752;2024-02-23T09:47:48;6.97;;;4.20;;
51374;SDS011;37465;52.738;4.752;2024-02-23T09:52:44;7.95;;;4.90;;
51374;SDS011;37465;52.738;4.752;2024-02-23T09:55:12;8.07;;;4.88;;
51374;SDS011;37465;52.738;4.752;2024-02-23T09:57:40;8.07;;;4.78;;
51374;SDS011;37465;52.738;4.752;2024-02-23T10:00:08;8.75;;;5.55;;
51374;SDS011;37465;52.738;4.752;2024-02-23T10:02:35;7.43;;;5.40;;
51374;SDS011;37465;52.738;4.752;2024-02-23T10:05:05;9.75;;;4.78;;
51374;SDS011;37465;52.738;4.752;2024-02-23T10:07:33;7.78;;;4.78;;
51374;SDS011;37465;52.738;4.752;2024-02-23T10:10:01;7.35;;;4.57;;
51374;SDS011;37465;52.738;4.752;2024-02-23T10:12:29;11.02;;;4.82;;
51374;SDS011;37465;52.738;4.752;2024-02-23T10:14:57;11.82;;;3.83;;
51374;SDS011;37465;52.738;4.752;2024-02-23T10:17:24;9.80;;;3.65;;
51374;SDS011;37465;52.738;4.752;2024-02-23T10:19:52;9.40;;;3.83;;
51374;SDS011;37465;52.738;4.752;2024-02-23T10:22:21;9.18;;;3.90;;
51374;SDS011;37465;52.738;4.752;2024-02-23T10:24:51;10.38;;;3.42;;
51374;SDS011;37465;52.738;4.752;2024-02-23T10:27:19;9.20;;;3.10;;
51374;SDS011;37465;52.738;4.752;2024-02-23T10:29:49;6.15;;;2.95;;
51374;SDS011;37465;52.738;4.752;2024-02-23T10:32:16;20.20;;;3.45;;
51374;SDS011;37465;52.738;4.752;2024-02-23T10:34:45;13.52;;;3.35;;
51374;SDS011;37465;52.738;4.752;2024-02-23T10:37:14;10.23;;;3.67;;
51374;SDS011;37465;52.738;4.752;2024-02-23T10:39:44;14.10;;;2.95;;
51374;SDS011;37465;52.738;4.752;2024-02-23T10:42:13;9.48;;;2.33;;
51374;SDS011;37465;52.738;4.752;2024-02-23T10:44:43;12.88;;;2.47;;
51374;SDS011;37465;52.738;4.752;2024-02-23T10:47:10;9.82;;;2.78;;
51374;SDS011;37465;52.738;4.752;2024-02-23T10:49:38;16.77;;;3.15;;
51374;SDS011;37465;52.738;4.752;2024-02-23T10:52:06;11.27;;;2.47;;
51374;SDS011;37465;52.738;4.752;2024-02-23T10:54:34;15.20;;;3.30;;
51374;SDS011;37465;52.738;4.752;2024-02-23T10:57:03;14.23;;;2.65;;
51374;SDS011;37465;52.738;4.752;2024-02-23T10:59:31;21.00;;;3.40;;
51374;SDS011;37465;52.738;4.752;2024-02-23T11:01:58;18.80;;;3.47;;
51374;SDS011;37465;52.738;4.752;2024-02-23T11:04:27;23.77;;;3.00;;
51374;SDS011;37465;52.738;4.752;2024-02-23T11:06:55;16.88;;;2.90;;
51374;SDS011;37465;52.738;4.752;2024-02-23T11:09:25;16.17;;;2.85;;
51374;SDS011;37465;52.738;4.752;2024-02-23T11:11:54;20.90;;;3.97;;
51374;SDS011;37465;52.738;4.752;2024-02-23T11:14:34;18.25;;;3.05;;
51374;SDS011;37465;52.738;4.752;2024-02-23T11:17:02;15.15;;;2.20;;
51374;SDS011;37465;52.738;4.752;2024-02-23T11:19:34;15.98;;;2.05;;
51374;SDS011;37465;52.738;4.752;2024-02-23T11:22:02;15.05;;;2.05;;
51374;SDS011;37465;52.738;4.752;2024-02-23T11:24:30;16.67;;;1.98;;
51374;SDS011;37465;52.738;4.752;2024-02-23T11:26:58;11.48;;;2.13;;
51374;SDS011;37465;52.738;4.752;2024-02-23T11:29:27;11.77;;;1.58;;
51374;SDS011;37465;52.738;4.752;2024-02-23T11:31:57;16.35;;;2.08;;
51374;SDS011;37465;52.738;4.752;2024-02-23T11:34:27;10.05;;;2.22;;
51374;SDS011;37465;52.738;4.752;2024-02-23T11:36:55;16.83;;;2.50;;
51374;SDS011;37465;52.738;4.752;2024-02-23T11:39:25;15.73;;;2.38;;
51374;SDS011;37465;52.738;4.752;2024-02-23T11:41:53;20.07;;;3.07;;
51374;SDS011;37465;52.738;4.752;2024-02-23T11:44:21;21.90;;;2.20;;
51374;SDS011;37465;52.738;4.752;2024-02-23T11:46:48;16.73;;;2.80;;
51374;SDS011;37465;52.738;4.752;2024-02-23T11:49:17;13.07;;;1.80;;
51374;SDS011;37465;52.738;4.752;2024-02-23T11:51:45;14.57;;;2.00;;
51374;SDS011;37465;52.738;4.752;2024-02-23T11:54:12;17.42;;;2.33;;
51374;SDS011;37465;52.738;4.752;2024-02-23T11:56:40;12.82;;;1.90;;
51374;SDS011;37465;52.738;4.752;2024-02-23T11:59:07;20.85;;;2.80;;
51374;SDS011;37465;52.738;4.752;2024-02-23T12:01:35;17.13;;;2.03;;
51374;SDS011;37465;52.738;4.752;2024-02-23T12:04:03;14.52;;;2.63;;
51374;SDS011;37465;52.738;4.752;2024-02-23T12:06:32;14.80;;;3.25;;
51374;SDS011;37465;52.738;4.752;2024-02-23T12:09:00;18.88;;;2.60;;
51374;SDS011;37465;52.738;4.752;2024-02-23T12:11:28;9.07;;;1.75;;
51374;SDS011;37465;52.738;4.752;2024-02-23T12:13:57;13.43;;;2.10;;
51374;SDS011;37465;52.738;4.752;2024-02-23T12:16:26;11.68;;;1.60;;
51374;SDS011;37465;52.738;4.752;2024-02-23T12:18:54;9.05;;;0.95;;
51374;SDS011;37465;52.738;4.752;2024-02-23T12:21:23;8.70;;;1.17;;
51374;SDS011;37465;52.738;4.752;2024-02-23T12:23:52;6.22;;;1.05;;
51374;SDS011;37465;52.738;4.752;2024-02-23T12:26:20;7.00;;;1.20;;
51374;SDS011;37465;52.738;4.752;2024-02-23T14:09:42;14.27;;;2.75;;
51374;SDS011;37465;52.738;4.752;2024-02-23T14:12:09;6.60;;;1.85;;
51374;SDS011;37465;52.738;4.752;2024-02-23T14:14:37;11.27;;;1.75;;
51374;SDS011;37465;52.738;4.752;2024-02-23T14:17:05;10.30;;;1.80;;
51374;SDS011;37465;52.738;4.752;2024-02-23T14:19:32;13.57;;;2.08;;
51374;SDS011;37465;52.738;4.752;2024-02-23T14:22:04;13.45;;;2.15;;
51374;SDS011;37465;52.738;4.752;2024-02-23T14:24:31;14.10;;;2.05;;
51374;SDS011;37465;52.738;4.752;2024-02-23T14:27:00;14.23;;;2.33;;
51374;SDS011;37465;52.738;4.752;2024-02-23T14:29:27;15.40;;;1.90;;
51374;SDS011;37465;52.738;4.752;2024-02-23T14:31:55;15.88;;;2.10;;
51374;SDS011;37465;52.738;4.752;2024-02-23T14:34:22;7.47;;;1.30;;
51374;SDS011;37465;52.738;4.752;2024-02-23T14:36:50;17.00;;;2.88;;
51374;SDS011;37465;52.738;4.752;2024-02-23T14:39:18;13.68;;;3.22;;
51374;SDS011;37465;52.738;4.752;2024-02-23T14:41:47;12.05;;;2.33;;
51374;SDS011;37465;52.738;4.752;2024-02-23T14:44:16;13.27;;;2.45;;
51374;SDS011;37465;52.738;4.752;2024-02-23T14:46:44;11.73;;;1.98;;
51374;SDS011;37465;52.738;4.752;2024-02-23T14:49:11;11.65;;;2.00;;
51374;SDS011;37465;52.738;4.752;2024-02-23T14:51:39;10.57;;;1.58;;
51374;SDS011;37465;52.738;4.752;2024-02-23T14:54:09;9.35;;;1.90;;
51374;SDS011;37465;52.738;4.752;2024-02-23T14:56:36;8.48;;;1.73;;
51374;SDS011;37465;52.738;4.752;2024-02-23T14:59:04;14.13;;;2.35;;
51374;SDS011;37465;52.738;4.752;2024-02-23T15:01:36;9.02;;;1.70;;
51374;SDS011;37465;52.738;4.752;2024-02-23T15:04:04;10.95;;;1.48;;
51374;SDS011;37465;52.738;4.752;2024-02-23T15:06:32;10.95;;;1.80;;
51374;SDS011;37465;52.738;4.752;2024-02-23T15:09:00;8.20;;;1.77;;
51374;SDS011;37465;52.738;4.752;2024-02-23T15:11:27;13.52;;;1.92;;
51374;SDS011;37465;52.738;4.752;2024-02-23T15:13:56;10.48;;;1.88;;
51374;SDS011;37465;52.738;4.752;2024-02-23T15:16:24;14.13;;;2.05;;
51374;SDS011;37465;52.738;4.752;2024-02-23T15:18:53;10.88;;;1.77;;
51374;SDS011;37465;52.738;4.752;2024-02-23T15:21:21;6.78;;;1.75;;
51374;SDS011;37465;52.738;4.752;2024-02-23T15:23:48;8.63;;;1.92;;
51374;SDS011;37465;52.738;4.752;2024-02-23T15:26:16;9.25;;;1.67;;
51374;SDS011;37465;52.738;4.752;2024-02-23T15:28:43;10.05;;;2.05;;
51374;SDS011;37465;52.738;4.752;2024-02-23T15:31:11;12.65;;;1.90;;
51374;SDS011;37465;52.738;4.752;2024-02-23T15:33:38;10.80;;;2.25;;
51374;SDS011;37465;52.738;4.752;2024-02-23T15:36:08;10.10;;;1.63;;
51374;SDS011;37465;52.738;4.752;2024-02-23T15:38:35;7.53;;;1.30;;
51374;SDS011;37465;52.738;4.752;2024-02-23T15:41:03;10.18;;;1.80;;
51374;SDS011;37465;52.738;4.752;2024-02-23T15:43:31;7.43;;;2.17;;
51374;SDS011;37465;52.738;4.752;2024-02-23T15:45:59;9.50;;;1.58;;
51374;SDS011;37465;52.738;4.752;2024-02-23T15:48:26;10.98;;;2.45;;
51374;SDS011;37465;52.738;4.752;2024-02-23T15:50:54;8.07;;;1.98;;
51374;SDS011;37465;52.738;4.752;2024-02-23T15:53:43;9.05;;;1.40;;
51374;SDS011;37465;52.738;4.752;2024-02-23T15:56:11;11.05;;;2.15;;
51374;SDS011;37465;52.738;4.752;2024-02-23T15:58:38;10.60;;;1.30;;
51374;SDS011;37465;52.738;4.752;2024-02-23T16:01:06;8.50;;;1.40;;
51374;SDS011;37465;52.738;4.752;2024-02-23T16:03:33;6.15;;;1.10;;
51374;SDS011;37465;52.738;4.752;2024-02-23T16:06:01;4.63;;;1.30;;
51374;SDS011;37465;52.738;4.752;2024-02-23T16:08:38;7.10;;;1.52;;
51374;SDS011;37465;52.738;4.752;2024-02-23T16:11:07;6.22;;;1.52;;
51374;SDS011;37465;52.738;4.752;2024-02-23T16:13:36;6.40;;;1.30;;
51374;SDS011;37465;52.738;4.752;2024-02-23T16:16:03;9.10;;;1.30;;
51374;SDS011;37465;52.738;4.752;2024-02-23T16:18:31;6.32;;;1.00;;
51374;SDS011;37465;52.738;4.752;2024-02-23T16:20:59;6.93;;;1.52;;
51374;SDS011;37465;52.738;4.752;2024-02-23T16:23:27;8.88;;;1.30;;
51374;SDS011;37465;52.738;4.752;2024-02-23T16:25:55;7.75;;;1.30;;
51374;SDS011;37465;52.738;4.752;2024-02-23T16:28:24;7.50;;;1.40;;
51374;SDS011;37465;52.738;4.752;2024-02-23T16:30:52;5.15;;;1.10;;